createdAt,value
2018-02-15T00:01:45.516Z,54.70
2018-02-15T00:04:13.867Z,54.23
2018-02-15T00:06:42.878Z,52.03
2018-02-15T00:09:11.180Z,54.33
2018-02-15T00:11:39.427Z,43.73
2018-02-15T00:14:07.664Z,46.43
2018-02-15T00:16:35.945Z,59.17
2018-02-15T00:19:04.202Z,50.80
2018-02-15T00:21:32.443Z,56.47
2018-02-15T00:24:00.887Z,54.70
2018-02-15T00:26:29.162Z,49.10
2018-02-15T00:28:58.224Z,48.77
2018-02-15T00:31:26.566Z,50.77
2018-02-15T00:33:54.835Z,49.67
2018-02-15T00:36:23.100Z,51.30
2018-02-15T00:38:52.155Z,46.73
2018-02-15T00:41:20.485Z,50.47
2018-02-15T00:43:48.771Z,41.50
2018-02-15T00:46:17.082Z,45.80
2018-02-15T00:48:45.353Z,51.70
2018-02-15T00:51:13.632Z,56.13
2018-02-15T00:53:41.933Z,48.63
2018-02-15T00:56:10.213Z,49.10
2018-02-15T00:58:39.254Z,48.90
2018-02-15T01:01:07.568Z,48.20
2018-02-15T01:03:35.819Z,46.47
2018-02-15T01:06:04.062Z,48.90
2018-02-15T01:08:32.404Z,53.03
2018-02-15T01:11:00.678Z,51.00
2018-02-15T01:13:29.717Z,41.93
2018-02-15T01:15:58.017Z,47.77
2018-02-15T01:18:26.259Z,44.73
2018-02-15T01:20:54.505Z,39.10
2018-02-15T01:23:22.772Z,45.77
2018-02-15T01:25:51.047Z,49.40
2018-02-15T01:28:19.313Z,50.10
2018-02-15T01:30:47.619Z,50.40
2018-02-15T01:33:16.650Z,49.57
2018-02-15T01:35:44.891Z,47.33
2018-02-15T01:38:13.955Z,49.80
2018-02-15T01:40:42.245Z,44.60
2018-02-15T01:43:10.500Z,44.37
2018-02-15T01:45:38.818Z,42.00
2018-02-15T01:48:07.060Z,46.97
2018-02-15T01:50:35.366Z,49.17
2018-02-15T01:53:03.670Z,49.27
2018-02-15T01:55:31.927Z,42.00
2018-02-15T01:58:00.178Z,45.47
2018-02-15T02:00:28.474Z,36.27
2018-02-15T02:02:56.737Z,38.23
2018-02-15T02:05:24.997Z,46.20
2018-02-15T02:07:53.362Z,49.50
2018-02-15T02:10:21.649Z,39.73
2018-02-15T02:12:49.993Z,42.57
2018-02-15T02:15:18.300Z,45.07
2018-02-15T02:17:46.598Z,37.77
2018-02-15T02:20:15.588Z,45.07
2018-02-15T02:22:44.632Z,46.90
2018-02-15T02:25:12.880Z,40.57
2018-02-15T02:27:41.151Z,50.00
2018-02-15T02:30:09.433Z,40.97
2018-02-15T02:32:37.715Z,39.90
2018-02-15T02:35:05.988Z,45.50
2018-02-15T02:37:34.288Z,48.67
2018-02-15T02:40:02.521Z,49.80
2018-02-15T02:42:31.529Z,41.03
2018-02-15T02:44:59.822Z,49.03
2018-02-15T02:47:28.077Z,52.60
2018-02-15T02:49:56.318Z,50.77
2018-02-15T02:52:24.652Z,46.07
2018-02-15T02:54:52.981Z,52.60
2018-02-15T02:57:21.998Z,47.90
2018-02-15T02:59:50.300Z,47.97
2018-02-15T03:02:18.548Z,50.50
2018-02-15T03:04:46.794Z,47.70
2018-02-15T03:07:15.081Z,48.30
2018-02-15T03:09:44.112Z,45.60
2018-02-15T03:12:12.385Z,51.43
2018-02-15T03:14:40.724Z,47.07
2018-02-15T03:17:09.758Z,52.07
2018-02-15T03:19:38.008Z,49.20
2018-02-15T03:22:06.340Z,48.60
2018-02-15T03:24:34.651Z,48.40
2018-02-15T03:27:03.664Z,45.50
2018-02-15T03:29:31.952Z,47.20
2018-02-15T03:32:00.297Z,51.03
2018-02-15T03:34:29.340Z,46.40
2018-02-15T03:36:57.629Z,44.97
2018-02-15T03:39:25.901Z,48.40
2018-02-15T03:41:54.144Z,46.00
2018-02-15T03:44:22.426Z,46.57
2018-02-15T03:46:50.671Z,50.17
2018-02-15T03:49:18.978Z,43.37
2018-02-15T03:51:47.261Z,46.43
2018-02-15T03:54:15.489Z,41.67
2018-02-15T03:56:43.726Z,48.80
2018-02-15T03:59:12.025Z,47.30
2018-02-15T04:01:40.292Z,44.40
2018-02-15T04:04:08.542Z,46.10
2018-02-15T04:06:36.834Z,47.40
2018-02-15T04:09:05.134Z,47.10
2018-02-15T04:11:33.426Z,47.57
2018-02-15T04:14:02.512Z,46.53
2018-02-15T04:16:30.729Z,39.90
2018-02-15T04:18:59.014Z,47.60
2018-02-15T04:21:27.356Z,46.00
2018-02-15T04:23:56.405Z,44.17
2018-02-15T04:26:24.656Z,45.70
2018-02-15T04:28:52.951Z,46.43
2018-02-15T04:31:21.221Z,45.63
2018-02-15T04:33:49.469Z,45.00
2018-02-15T04:36:17.751Z,44.53
2018-02-15T04:38:46.006Z,43.93
2018-02-15T04:41:14.262Z,41.03
2018-02-15T04:43:42.611Z,44.03
2018-02-15T04:46:10.857Z,44.90
2018-02-15T04:48:39.106Z,45.70
2018-02-15T04:51:07.418Z,43.37
2018-02-15T04:53:35.721Z,43.57
2018-02-15T04:56:04.023Z,156.60
2018-02-15T04:58:33.215Z,185.90
2018-02-15T05:01:01.469Z,53.77
2018-02-15T05:03:29.788Z,47.60
2018-02-15T05:05:58.863Z,45.60
2018-02-15T05:08:27.169Z,42.27
2018-02-15T05:10:55.452Z,46.77
2018-02-15T05:13:23.732Z,48.93
2018-02-15T05:15:51.984Z,45.73
2018-02-15T05:18:20.239Z,43.20
2018-02-15T05:20:48.575Z,41.47
2018-02-15T05:23:16.855Z,46.93
2018-02-15T05:25:45.093Z,42.17
2018-02-15T05:28:13.447Z,42.80
2018-02-15T05:30:41.702Z,44.83
2018-02-15T05:33:09.941Z,45.57
2018-02-15T05:35:38.243Z,44.07
2018-02-15T05:38:06.474Z,41.37
2018-02-15T05:40:34.713Z,35.70
2018-02-15T05:43:03.006Z,43.87
2018-02-15T05:45:32.053Z,40.27
2018-02-15T05:48:00.291Z,40.47
2018-02-15T05:50:28.607Z,45.30
2018-02-15T05:52:56.853Z,39.57
2018-02-15T05:55:25.183Z,38.90
2018-02-15T05:57:53.579Z,41.00
2018-02-15T06:00:22.697Z,44.60
2018-02-15T06:02:50.940Z,42.27
2018-02-15T06:05:19.296Z,41.83
2018-02-15T06:07:47.610Z,47.47
2018-02-15T06:10:16.624Z,45.43
2018-02-15T06:12:44.953Z,44.20
2018-02-15T06:15:13.257Z,44.67
2018-02-15T06:17:42.297Z,43.17
2018-02-15T06:20:10.571Z,44.67
2018-02-15T06:22:38.810Z,43.40
2018-02-15T06:25:07.108Z,43.90
2018-02-15T06:27:35.514Z,45.17
2018-02-15T06:30:03.842Z,41.13
2018-02-15T06:32:32.122Z,28.77
2018-02-15T06:35:00.430Z,26.00
2018-02-15T06:37:29.421Z,24.60
2018-02-15T06:39:57.687Z,26.33
2018-02-15T06:42:26.005Z,27.83
2018-02-15T06:44:54.268Z,22.90
2018-02-15T06:47:22.561Z,25.83
2018-02-15T06:49:51.633Z,24.60
2018-02-15T06:52:19.962Z,26.20
2018-02-15T06:54:48.244Z,26.50
2018-02-15T06:57:16.646Z,24.00
2018-02-15T06:59:44.945Z,25.97
2018-02-15T07:02:13.202Z,26.60
2018-02-15T07:04:41.512Z,26.70
2018-02-15T07:07:09.783Z,26.33
2018-02-15T07:09:38.126Z,24.97
2018-02-15T07:12:06.454Z,30.37
2018-02-15T07:14:34.733Z,36.97
2018-02-15T07:17:03.774Z,29.97
2018-02-15T07:19:32.100Z,29.90
2018-02-15T07:22:00.369Z,39.60
2018-02-15T07:24:28.645Z,29.47
2018-02-15T07:26:57.007Z,36.67
2018-02-15T07:29:25.284Z,31.20
2018-02-15T07:31:53.579Z,33.60
2018-02-15T07:34:22.658Z,30.57
2018-02-15T07:36:50.944Z,48.90
2018-02-15T07:39:19.246Z,33.50
2018-02-15T07:41:48.281Z,28.27
2018-02-15T07:44:16.604Z,40.37
2018-02-15T07:46:44.923Z,32.27
2018-02-15T07:49:13.242Z,29.33
2018-02-15T07:51:41.534Z,32.33
2018-02-15T07:54:09.886Z,43.07
2018-02-15T07:56:38.210Z,31.57
2018-02-15T07:59:07.207Z,37.37
2018-02-15T08:01:35.498Z,31.20
2018-02-15T08:04:03.864Z,34.07
2018-02-15T08:06:32.140Z,35.50
2018-02-15T08:09:00.428Z,32.53
2018-02-15T08:11:28.734Z,31.97
2018-02-15T08:13:57.005Z,40.60
2018-02-15T08:16:25.245Z,44.93
2018-02-15T08:18:53.518Z,36.90
2018-02-15T08:21:21.818Z,32.47
2018-02-15T08:23:50.074Z,47.97
2018-02-15T08:26:18.332Z,38.97
2018-02-15T08:28:47.335Z,30.67
2018-02-15T08:31:15.594Z,32.07
2018-02-15T08:33:44.621Z,32.50
2018-02-15T08:36:12.894Z,35.80
2018-02-15T08:38:41.172Z,33.80
2018-02-15T08:41:09.475Z,39.17
2018-02-15T08:43:37.740Z,42.90
2018-02-15T08:46:06.095Z,37.03
2018-02-15T08:48:34.401Z,38.87
2018-02-15T08:51:02.686Z,33.43
2018-02-15T08:53:30.935Z,43.50
2018-02-15T08:55:59.230Z,31.97
2018-02-15T08:58:27.468Z,31.63
2018-02-15T09:00:55.763Z,40.00
2018-02-15T09:03:24.073Z,38.90
2018-02-15T09:05:52.344Z,34.27
2018-02-15T09:08:20.585Z,35.87
2018-02-15T09:10:48.937Z,37.50
2018-02-15T09:13:18.028Z,36.60
2018-02-15T09:15:47.044Z,31.10
2018-02-15T09:18:15.359Z,34.03
2018-02-15T09:20:43.607Z,36.37
2018-02-15T09:23:11.879Z,44.27
2018-02-15T09:25:40.178Z,29.63
2018-02-15T09:28:08.435Z,32.97
2018-02-15T09:30:36.689Z,42.70
2018-02-15T09:33:04.976Z,33.87
2018-02-15T09:35:33.239Z,41.73
2018-02-15T09:38:01.517Z,36.87
2018-02-15T09:40:29.826Z,33.67
2018-02-15T09:42:58.068Z,36.20
2018-02-15T09:45:26.334Z,30.67
2018-02-15T09:47:55.392Z,41.73
2018-02-15T09:50:23.723Z,37.50
2018-02-15T09:52:51.999Z,40.03
2018-02-15T09:55:20.359Z,35.47
2018-02-15T09:57:49.378Z,36.57
2018-02-15T10:00:17.629Z,51.53
2018-02-15T10:02:45.936Z,37.43
2018-02-15T10:05:14.205Z,37.60
2018-02-15T10:07:42.455Z,53.27
2018-02-15T10:10:10.727Z,36.60
2018-02-15T10:12:38.981Z,42.10
2018-02-15T10:15:07.246Z,33.63
2018-02-15T10:17:35.560Z,44.43
2018-02-15T10:20:04.648Z,42.10
2018-02-15T10:22:32.907Z,36.20
2018-02-15T10:25:01.195Z,34.70
2018-02-15T10:27:30.195Z,33.10
2018-02-15T10:29:58.469Z,32.83
2018-02-15T10:32:27.529Z,32.13
2018-02-15T10:34:55.771Z,44.87
2018-02-15T10:37:24.022Z,34.97
2018-02-15T10:39:52.347Z,40.53
2018-02-15T10:42:20.655Z,32.57
2018-02-15T10:44:48.917Z,38.50
2018-02-15T10:47:17.222Z,38.70
2018-02-15T10:49:46.241Z,34.40
2018-02-15T10:52:14.517Z,38.37
2018-02-15T10:54:42.791Z,36.77
2018-02-15T10:57:11.072Z,35.07
2018-02-15T10:59:39.326Z,37.23
2018-02-15T11:02:13.377Z,38.17
2018-02-15T11:04:47.216Z,34.00
2018-02-15T11:07:15.491Z,34.70
2018-02-15T11:09:44.516Z,35.80
2018-02-15T11:12:12.813Z,31.80
2018-02-15T11:14:41.208Z,33.20
2018-02-15T11:17:09.446Z,32.10
2018-02-15T11:19:37.954Z,34.17
2018-02-15T11:22:06.235Z,32.73
2018-02-15T11:24:34.482Z,34.90
2018-02-15T11:27:02.733Z,34.00
2018-02-15T11:29:31.776Z,37.43
2018-02-15T11:32:00.051Z,33.23
2018-02-15T11:34:28.300Z,33.57
2018-02-15T11:36:56.605Z,33.97
2018-02-15T11:39:24.850Z,35.17
2018-02-15T11:41:53.090Z,34.87
2018-02-15T11:44:21.391Z,33.97
2018-02-15T11:46:49.625Z,31.50
2018-02-15T11:49:17.864Z,29.80
2018-02-15T11:51:46.148Z,33.23
2018-02-15T11:54:14.387Z,30.20
2018-02-15T11:56:43.414Z,31.10
2018-02-15T11:59:12.016Z,32.87
2018-02-15T12:01:40.264Z,30.80
2018-02-15T12:04:08.498Z,33.60
2018-02-15T12:06:36.787Z,35.60
2018-02-15T12:09:05.810Z,30.13
2018-02-15T12:11:34.044Z,32.43
2018-02-15T12:14:02.328Z,28.80
2018-02-15T12:16:31.342Z,30.17
2018-02-15T12:18:59.619Z,30.10
2018-02-15T12:21:27.956Z,28.27
2018-02-15T12:23:56.204Z,28.67
2018-02-15T12:26:24.421Z,26.03
2018-02-15T12:28:52.725Z,27.13
2018-02-15T12:31:20.989Z,20.20
2018-02-15T12:33:50.025Z,24.67
2018-02-15T12:36:18.324Z,26.30
2018-02-15T12:38:46.609Z,26.27
2018-02-15T12:41:14.852Z,25.60
2018-02-15T12:43:43.997Z,28.83
2018-02-15T12:46:13.012Z,23.43
2018-02-15T12:48:41.334Z,24.67
2018-02-15T12:51:09.622Z,26.60
2018-02-15T12:53:37.886Z,24.93
2018-02-15T12:56:09.735Z,24.70
2018-02-15T12:58:38.013Z,26.37
2018-02-15T13:01:06.262Z,27.63
2018-02-15T13:03:34.589Z,21.87
2018-02-15T13:06:02.827Z,18.53
2018-02-15T13:08:31.079Z,23.90
2018-02-15T13:10:59.365Z,24.43
2018-02-15T13:13:30.520Z,23.50
2018-02-15T13:16:16.683Z,23.07
2018-02-15T13:18:44.965Z,25.87
2018-02-15T13:21:13.225Z,25.87
2018-02-15T13:23:42.419Z,24.30
2018-02-15T13:26:11.425Z,24.03
2018-02-15T13:28:39.704Z,25.10
2018-02-15T13:31:08.005Z,23.30
2018-02-15T13:33:36.240Z,24.00
2018-02-15T13:36:05.262Z,23.50
2018-02-15T13:38:33.546Z,21.90
2018-02-15T13:41:01.802Z,21.33
2018-02-15T13:43:30.040Z,24.37
2018-02-15T13:45:58.331Z,22.60
2018-02-15T13:48:26.614Z,24.57
2018-02-15T13:50:55.669Z,21.63
2018-02-15T13:53:23.975Z,24.60
2018-02-15T13:55:53.007Z,24.70
2018-02-15T13:58:21.296Z,21.30
2018-02-15T14:00:49.621Z,21.67
2018-02-15T14:03:18.648Z,21.93
2018-02-15T14:05:46.999Z,22.10
2018-02-15T14:08:16.066Z,20.60
2018-02-15T14:10:44.289Z,20.87
2018-02-15T14:13:12.606Z,22.23
2018-02-15T14:15:40.883Z,20.13
2018-02-15T14:18:09.121Z,22.73
2018-02-15T14:20:37.347Z,22.50
2018-02-15T14:23:05.620Z,23.43
2018-02-15T14:25:33.900Z,17.20
2018-02-15T14:28:02.133Z,20.33
2018-02-15T14:30:30.522Z,20.37
2018-02-15T14:32:59.565Z,17.57
2018-02-15T14:35:28.583Z,22.13
2018-02-15T14:37:56.866Z,18.23
2018-02-15T14:40:25.342Z,18.83
2018-02-15T14:42:53.563Z,19.50
2018-02-15T14:45:21.847Z,18.63
2018-02-15T14:47:50.099Z,19.17
2018-02-15T14:50:18.371Z,21.30
2018-02-15T14:52:46.657Z,21.50
2018-02-15T14:55:15.021Z,18.23
2018-02-15T14:57:43.329Z,18.87
2018-02-15T15:00:11.624Z,19.47
2018-02-15T15:02:39.931Z,21.60
2018-02-15T15:05:08.184Z,17.60
2018-02-15T15:07:36.455Z,21.47
2018-02-15T15:10:05.541Z,19.50
2018-02-15T15:12:34.692Z,19.40
2018-02-15T15:15:02.974Z,20.80
2018-02-15T15:17:31.231Z,19.80
2018-02-15T15:19:59.492Z,18.87
2018-02-15T15:22:27.803Z,19.03
2018-02-15T15:24:56.052Z,22.30
2018-02-15T15:27:24.392Z,18.57
2018-02-15T15:29:52.648Z,19.77
2018-02-15T15:32:20.914Z,17.60
2018-02-15T15:34:50.014Z,21.63
2018-02-15T15:37:18.320Z,21.53
2018-02-15T15:39:47.349Z,21.07
2018-02-15T15:42:15.596Z,20.70
2018-02-15T15:44:43.901Z,19.63
2018-02-15T15:47:12.195Z,19.47
2018-02-15T15:49:40.433Z,21.63
2018-02-15T15:52:08.774Z,18.27
2018-02-15T15:54:37.038Z,18.03
2018-02-15T15:57:05.308Z,20.37
2018-02-15T15:59:33.585Z,20.27
2018-02-15T16:02:01.829Z,20.63
2018-02-15T16:04:30.085Z,19.07
2018-02-15T16:06:59.180Z,18.03
2018-02-15T16:09:27.449Z,16.93
2018-02-15T16:11:55.719Z,17.53
2018-02-15T16:14:24.793Z,18.57
2018-02-15T16:16:53.094Z,19.77
2018-02-15T16:19:21.345Z,17.73
2018-02-15T16:21:49.625Z,16.97
2018-02-15T16:24:17.911Z,19.40
2018-02-15T16:26:46.965Z,18.67
2018-02-15T16:29:15.576Z,19.13
2018-02-15T16:31:43.835Z,16.30
2018-02-15T16:34:12.094Z,17.63
2018-02-15T16:36:40.378Z,16.60
2018-02-15T16:39:08.662Z,17.20
2018-02-15T16:41:36.927Z,16.80
2018-02-15T16:44:05.256Z,18.83
2018-02-15T16:46:33.542Z,14.73
2018-02-15T16:49:01.832Z,15.67
2018-02-15T16:51:30.680Z,20.53
2018-02-15T16:53:59.784Z,19.73
2018-02-15T16:56:28.843Z,20.40
2018-02-15T16:58:57.198Z,19.07
2018-02-15T17:01:25.500Z,20.03
2018-02-15T17:03:53.755Z,19.07
2018-02-15T17:06:22.070Z,17.97
2018-02-15T17:08:51.179Z,23.50
2018-02-15T17:11:20.237Z,18.30
2018-02-15T17:13:49.227Z,20.37
2018-02-15T17:16:17.698Z,19.00
2018-02-15T17:18:45.949Z,19.27
2018-02-15T17:21:14.225Z,18.73
2018-02-15T17:23:42.480Z,21.23
2018-02-15T17:26:11.559Z,23.37
2018-02-15T17:28:39.871Z,22.47
2018-02-15T17:31:08.229Z,19.60
2018-02-15T17:33:36.508Z,20.03
2018-02-15T17:36:04.847Z,20.97
2018-02-15T17:38:33.110Z,24.90
2018-02-15T17:41:01.436Z,22.37
2018-02-15T17:43:29.732Z,23.17
2018-02-15T17:45:58.115Z,23.77
2018-02-15T17:48:26.489Z,28.17
2018-02-15T17:50:54.781Z,20.90
2018-02-15T17:53:23.826Z,24.73
2018-02-15T17:55:52.848Z,24.70
2018-02-15T17:58:21.129Z,21.07
2018-02-15T18:00:49.471Z,20.50
2018-02-15T18:03:17.886Z,26.50
2018-02-15T18:05:46.267Z,28.90
2018-02-15T18:08:14.540Z,22.60
2018-02-15T18:10:42.827Z,20.50
2018-02-15T18:13:11.140Z,21.00
2018-02-15T18:15:39.378Z,26.87
2018-02-15T18:18:07.622Z,28.83
2018-02-15T18:20:36.688Z,28.43
2018-02-15T18:23:05.053Z,24.83
2018-02-15T18:25:33.316Z,25.37
2018-02-15T18:28:01.738Z,29.43
2018-02-15T18:30:30.746Z,26.20
2018-02-15T18:32:59.199Z,20.63
2018-02-15T18:35:28.301Z,26.57
2018-02-15T18:37:56.561Z,26.13
2018-02-15T18:40:24.860Z,27.40
2018-02-15T18:42:53.931Z,27.37
2018-02-15T18:45:22.186Z,24.87
2018-02-15T18:47:50.438Z,27.30
2018-02-15T18:50:18.772Z,25.53
2018-02-15T18:52:47.123Z,24.40
2018-02-15T18:55:15.546Z,20.57
2018-02-15T18:57:43.979Z,25.20
2018-02-15T19:00:12.287Z,28.53
2018-02-15T19:02:40.792Z,29.97
2018-02-15T19:05:09.101Z,29.70
2018-02-15T19:07:37.421Z,25.47
2018-02-15T19:10:06.443Z,23.97
2018-02-15T19:12:34.795Z,26.43
2018-02-15T19:15:03.040Z,28.87
2018-02-15T19:17:31.296Z,26.30
2018-02-15T19:19:59.610Z,22.30
2018-02-15T19:22:27.855Z,22.43
2018-02-15T19:24:56.143Z,24.53
2018-02-15T19:27:24.461Z,24.43
2018-02-15T19:29:56.109Z,24.03
2018-02-15T19:32:26.241Z,23.57
2018-02-15T19:34:54.595Z,26.37
2018-02-15T19:37:23.115Z,23.67
2018-02-15T19:39:51.458Z,26.73
2018-02-15T19:42:21.050Z,27.37
2018-02-15T19:44:51.804Z,23.50
2018-02-15T19:47:20.930Z,21.67
2018-02-15T19:49:49.541Z,22.00
2018-02-15T19:52:17.883Z,22.90
2018-02-15T19:54:46.575Z,32.27
2018-02-15T19:57:14.944Z,25.00
2018-02-15T19:59:43.951Z,25.87
2018-02-15T20:02:13.589Z,21.00
2018-02-15T20:04:42.055Z,22.13
2018-02-15T20:07:11.191Z,25.10
2018-02-15T20:09:41.012Z,22.17
2018-02-15T20:12:09.585Z,28.10
2018-02-15T20:14:39.348Z,21.47
2018-02-15T20:17:07.592Z,24.63
2018-02-15T20:19:35.970Z,23.43
2018-02-15T20:22:05.188Z,22.50
2018-02-15T20:24:33.565Z,23.23
2018-02-15T20:27:07.680Z,26.20
2018-02-15T20:29:36.784Z,26.37
2018-02-15T20:32:05.066Z,22.30
2018-02-15T20:34:33.399Z,26.03
2018-02-15T20:37:01.692Z,23.60
2018-02-15T20:39:36.501Z,21.80
2018-02-15T20:42:05.597Z,26.77
2018-02-15T20:44:33.866Z,23.20
2018-02-15T20:47:02.941Z,24.37
2018-02-15T20:49:36.805Z,26.87
2018-02-15T20:52:10.494Z,22.10
2018-02-15T20:54:44.460Z,26.87
2018-02-15T20:57:12.707Z,21.30
2018-02-15T20:59:40.981Z,24.40
2018-02-15T21:02:09.360Z,24.13
2018-02-15T21:04:37.675Z,22.27
2018-02-15T21:07:05.922Z,26.97
2018-02-15T21:09:34.269Z,25.90
2018-02-15T21:12:02.516Z,26.27
2018-02-15T21:14:31.578Z,23.77
2018-02-15T21:16:59.946Z,24.77
2018-02-15T21:19:28.265Z,24.57
2018-02-15T21:21:56.560Z,27.83
2018-02-15T21:24:24.896Z,25.33
2018-02-15T21:26:53.146Z,21.33
2018-02-15T21:29:21.401Z,22.10
2018-02-15T21:31:49.710Z,27.63
2018-02-15T21:34:17.965Z,23.80
2018-02-15T21:36:46.260Z,27.03
2018-02-15T21:39:14.500Z,24.20
2018-02-15T21:41:42.828Z,25.17
2018-02-15T21:44:11.126Z,25.27
2018-02-15T21:46:39.405Z,24.47
2018-02-15T21:49:08.452Z,28.17
2018-02-15T21:51:36.741Z,28.57
2018-02-15T21:54:05.020Z,27.63
2018-02-15T21:56:33.272Z,23.03
2018-02-15T21:59:01.521Z,26.00
2018-02-15T22:01:29.899Z,24.20
2018-02-15T22:03:58.181Z,23.73
2018-02-15T22:06:26.478Z,26.93
2018-02-15T22:08:54.880Z,24.40
2018-02-15T22:11:23.174Z,23.37
2018-02-15T22:13:52.207Z,28.30
2018-02-15T22:16:20.552Z,28.20
2018-02-15T22:18:48.885Z,22.83
2018-02-15T22:21:17.147Z,23.37
2018-02-15T22:23:45.490Z,25.30
2018-02-15T22:26:14.497Z,25.63
2018-02-15T22:28:42.785Z,28.17
2018-02-15T22:31:11.150Z,21.40
2018-02-15T22:33:39.527Z,22.43
2018-02-15T22:36:07.826Z,26.33
2018-02-15T22:38:36.136Z,24.10
2018-02-15T22:41:04.387Z,24.17
2018-02-15T22:43:32.700Z,23.80
2018-02-15T22:46:01.000Z,22.80
2018-02-15T22:48:29.239Z,29.20
2018-02-15T22:50:57.535Z,28.00
2018-02-15T22:53:26.546Z,21.90
2018-02-15T22:55:54.897Z,23.50
2018-02-15T22:58:23.944Z,27.90
2018-02-15T23:00:52.214Z,23.60
2018-02-15T23:03:20.483Z,23.37
2018-02-15T23:05:48.727Z,23.13
2018-02-15T23:08:18.642Z,25.77
2018-02-15T23:10:46.912Z,24.80
2018-02-15T23:13:15.943Z,22.97
2018-02-15T23:15:44.301Z,24.20
2018-02-15T23:18:13.310Z,24.87
2018-02-15T23:20:41.597Z,23.77
2018-02-15T23:23:09.888Z,25.50
2018-02-15T23:25:38.136Z,26.53
2018-02-15T23:28:06.368Z,26.40
2018-02-15T23:30:34.660Z,27.17
2018-02-15T23:33:03.667Z,22.07
2018-02-15T23:35:32.716Z,22.07
2018-02-15T23:38:01.044Z,24.70
2018-02-15T23:40:29.282Z,25.57
2018-02-15T23:42:58.356Z,21.40
2018-02-15T23:45:26.694Z,26.33
2018-02-15T23:47:54.992Z,21.23
2018-02-15T23:50:24.082Z,24.70
2018-02-15T23:52:52.387Z,24.23
2018-02-15T23:55:20.646Z,23.77
2018-02-15T23:57:48.943Z,23.23
